createdAt,value
2023-05-02T00:02:32.453Z,11.07
2023-05-02T00:08:37.400Z,11.88
2023-05-02T00:14:40.844Z,11.30
2023-05-02T00:20:44.315Z,11.65
2023-05-02T00:26:49.254Z,12.20
2023-05-02T00:32:54.362Z,12.15
2023-05-02T00:38:57.840Z,12.52
2023-05-02T00:45:02.612Z,13.02
2023-05-02T00:51:06.492Z,12.23
2023-05-02T00:57:10.033Z,12.30
2023-05-02T01:03:19.826Z,12.95
2023-05-02T01:09:28.445Z,12.52
2023-05-02T01:15:32.773Z,12.52
2023-05-02T01:21:38.052Z,13.05
2023-05-02T01:27:45.423Z,12.70
2023-05-02T01:33:51.862Z,13.68
2023-05-02T01:39:56.669Z,13.52
2023-05-02T01:46:00.993Z,13.38
2023-05-02T01:52:07.889Z,13.70
2023-05-02T01:58:12.226Z,14.93
2023-05-02T02:04:16.999Z,13.68
2023-05-02T02:10:22.119Z,14.25
2023-05-02T02:16:27.378Z,14.30
2023-05-02T02:22:31.458Z,15.38
2023-05-02T02:28:36.474Z,16.05
2023-05-02T02:34:39.999Z,16.23
2023-05-02T02:40:46.698Z,15.88
2023-05-02T02:46:54.725Z,15.65
2023-05-02T02:53:01.124Z,15.55
2023-05-02T02:59:06.641Z,15.93
2023-05-02T03:05:13.062Z,16.08
2023-05-02T03:11:16.616Z,15.65
2023-05-02T03:17:20.249Z,17.05
2023-05-02T03:23:25.143Z,17.02
2023-05-02T03:29:29.209Z,16.02
2023-05-02T03:35:32.715Z,15.93
2023-05-02T03:41:37.428Z,15.43
2023-05-02T03:47:40.987Z,13.07
2023-05-02T03:53:44.545Z,11.18
2023-05-02T03:59:49.283Z,8.70
2023-05-02T04:05:52.980Z,8.68
2023-05-02T04:11:56.358Z,7.68
2023-05-02T04:18:01.441Z,7.97
2023-05-02T04:24:04.995Z,8.07
2023-05-02T04:30:10.216Z,8.40
2023-05-02T04:36:15.242Z,7.32
2023-05-02T04:42:18.785Z,7.15
2023-05-02T04:48:22.207Z,6.35
2023-05-02T04:54:28.022Z,6.22
2023-05-02T05:00:31.514Z,5.68
2023-05-02T05:06:34.932Z,7.15
2023-05-02T05:12:39.809Z,4.97
2023-05-02T05:18:43.281Z,5.05
2023-05-02T05:24:52.894Z,5.10
2023-05-02T05:30:57.625Z,5.90
2023-05-02T05:37:02.251Z,5.97
2023-05-02T05:43:05.673Z,6.40
2023-05-02T05:49:10.573Z,5.95
2023-05-02T05:55:14.049Z,5.40
2023-05-02T06:01:17.518Z,4.75
2023-05-02T06:07:22.355Z,5.55
2023-05-02T06:13:25.815Z,5.38
2023-05-02T06:19:29.325Z,4.97
2023-05-02T06:25:34.163Z,4.70
2023-05-02T06:31:37.813Z,5.20
2023-05-02T06:37:41.451Z,4.60
2023-05-02T06:43:46.227Z,4.43
2023-05-02T06:49:49.688Z,5.07
2023-05-02T06:55:53.520Z,5.32
2023-05-02T07:01:58.542Z,4.57
2023-05-02T07:08:01.954Z,4.63
2023-05-02T07:14:05.631Z,5.07
2023-05-02T07:20:13.180Z,4.07
2023-05-02T07:26:18.981Z,3.40
2023-05-02T07:32:22.868Z,2.80
2023-05-02T07:38:29.271Z,2.28
2023-05-02T07:44:35.194Z,2.67
2023-05-02T07:50:38.846Z,2.67
2023-05-02T07:56:44.233Z,2.35
2023-05-02T08:02:47.997Z,2.38
2023-05-02T08:08:51.626Z,1.95
2023-05-02T08:14:56.553Z,2.40
2023-05-02T08:21:00.050Z,2.17
2023-05-02T08:27:04.211Z,2.13
2023-05-02T08:33:09.228Z,2.50
2023-05-02T08:39:13.140Z,1.90
2023-05-02T08:45:16.986Z,2.15
2023-05-02T08:51:24.274Z,2.10
2023-05-02T08:57:28.541Z,2.38
2023-05-02T09:03:33.600Z,1.60
2023-05-02T09:09:38.837Z,2.17
2023-05-02T09:15:42.279Z,2.20
2023-05-02T09:21:45.969Z,2.55
2023-05-02T09:27:54.736Z,2.33
2023-05-02T09:33:58.965Z,2.13
2023-05-02T09:40:09.322Z,2.53
2023-05-02T09:46:14.130Z,2.38
2023-05-02T09:52:18.413Z,2.45
2023-05-02T09:58:23.038Z,2.75
2023-05-02T10:04:28.671Z,3.10
2023-05-02T10:10:34.486Z,2.65
2023-05-02T10:16:41.407Z,2.92
2023-05-02T10:22:47.359Z,4.45
2023-05-02T10:28:51.017Z,3.05
2023-05-02T10:34:55.954Z,2.78
2023-05-02T10:41:03.673Z,2.47
2023-05-02T10:47:22.739Z,2.30
2023-05-02T10:53:26.864Z,2.33
2023-05-02T10:59:33.550Z,2.70
2023-05-02T11:05:56.964Z,2.78
2023-05-02T11:12:02.124Z,2.60
2023-05-02T11:18:09.100Z,2.42
2023-05-02T11:24:31.442Z,2.55
2023-05-02T11:30:56.140Z,2.58
2023-05-02T11:37:01.670Z,2.50
2023-05-02T11:43:15.228Z,2.67
2023-05-02T11:49:18.784Z,2.38
2023-05-02T11:55:23.618Z,2.47
2023-05-02T12:01:27.142Z,2.60
2023-05-02T12:07:36.990Z,2.90
2023-05-02T12:13:48.028Z,3.20
2023-05-02T12:19:51.869Z,2.38
2023-05-02T12:25:55.323Z,2.78
2023-05-02T12:32:00.359Z,2.60
2023-05-02T12:38:10.521Z,2.17
2023-05-02T12:44:14.128Z,2.22
2023-05-02T12:50:19.032Z,2.10
2023-05-02T12:56:22.924Z,2.50
2023-05-02T13:02:26.441Z,2.45
2023-05-02T13:08:31.304Z,2.67
2023-05-02T13:14:34.774Z,2.42
2023-05-02T13:20:38.324Z,2.50
2023-05-02T13:26:43.254Z,2.20
2023-05-02T13:32:46.808Z,2.63
2023-05-02T13:38:50.759Z,2.45
2023-05-02T13:44:55.677Z,2.65
2023-05-02T13:50:59.177Z,1.90
2023-05-02T13:57:02.703Z,2.97
2023-05-02T14:03:07.697Z,2.33
2023-05-02T14:09:12.442Z,2.50
2023-05-02T14:15:16.021Z,2.50
2023-05-02T14:21:21.269Z,1.70
2023-05-02T14:27:25.794Z,1.90
2023-05-02T14:33:29.265Z,1.98
2023-05-02T14:39:34.056Z,2.05
2023-05-02T14:45:37.474Z,1.85
2023-05-02T14:51:40.920Z,2.08
2023-05-02T14:57:45.967Z,2.03
2023-05-02T15:04:04.953Z,2.17
2023-05-02T15:10:10.556Z,1.80
2023-05-02T15:16:15.674Z,2.13
2023-05-02T15:22:19.369Z,1.77
2023-05-02T15:28:22.934Z,2.50
2023-05-02T15:34:28.043Z,1.92
2023-05-02T15:40:31.922Z,1.80
2023-05-02T15:46:35.388Z,2.08
2023-05-02T15:52:40.156Z,1.58
2023-05-02T15:58:43.772Z,1.98
2023-05-02T16:04:47.356Z,1.85
2023-05-02T16:10:52.134Z,1.90
2023-05-02T16:16:59.702Z,1.90
2023-05-02T16:23:03.288Z,1.92
2023-05-02T16:29:08.189Z,1.92
2023-05-02T16:35:13.133Z,1.70
2023-05-02T16:41:16.742Z,2.00
2023-05-02T16:47:22.104Z,2.00
2023-05-02T16:53:25.729Z,2.40
2023-05-02T16:59:29.204Z,2.50
2023-05-02T17:05:34.145Z,2.70
2023-05-02T17:11:37.584Z,2.55
2023-05-02T17:17:41.480Z,2.50
2023-05-02T17:23:46.480Z,1.85
2023-05-02T17:29:49.915Z,2.30
2023-05-02T17:35:54.169Z,2.75
2023-05-02T17:41:58.958Z,2.50
2023-05-02T17:48:03.965Z,2.13
2023-05-02T17:54:09.008Z,2.25
2023-05-02T18:00:15.846Z,2.60
2023-05-02T18:06:21.738Z,2.78
2023-05-02T18:12:25.241Z,2.22
2023-05-02T18:18:30.125Z,2.58
2023-05-02T18:24:33.661Z,2.80
2023-05-02T18:30:38.480Z,2.40
2023-05-02T18:36:45.036Z,2.97
2023-05-02T18:42:48.508Z,2.90
2023-05-02T18:48:52.160Z,3.00
2023-05-02T18:54:57.126Z,3.60
2023-05-02T19:01:00.659Z,3.03
2023-05-02T19:07:04.102Z,3.05
2023-05-02T19:13:09.189Z,3.15
2023-05-02T19:19:12.674Z,3.20
2023-05-02T19:25:16.270Z,3.00
2023-05-02T19:31:23.109Z,3.60
2023-05-02T19:37:26.758Z,3.42
2023-05-02T19:43:30.273Z,3.33
2023-05-02T19:49:35.111Z,3.08
2023-05-02T19:55:38.577Z,3.03
2023-05-02T20:01:42.241Z,2.95
2023-05-02T20:07:47.682Z,2.95
2023-05-02T20:13:51.231Z,2.85
2023-05-02T20:19:54.864Z,3.50
2023-05-02T20:25:59.627Z,2.97
2023-05-02T20:32:03.173Z,3.30
2023-05-02T20:38:06.617Z,3.22
2023-05-02T20:44:12.226Z,3.13
2023-05-02T20:50:17.141Z,3.67
2023-05-02T20:56:21.063Z,3.58
2023-05-02T21:02:26.828Z,3.33
2023-05-02T21:08:30.222Z,3.60
2023-05-02T21:14:33.651Z,4.10
2023-05-02T21:20:39.694Z,3.70
2023-05-02T21:26:43.228Z,3.30
2023-05-02T21:32:46.768Z,4.00
2023-05-02T21:38:51.854Z,3.83
2023-05-02T21:44:55.274Z,3.67
2023-05-02T21:50:58.709Z,4.57
2023-05-02T21:57:03.756Z,3.78
2023-05-02T22:03:08.525Z,3.33
2023-05-02T22:09:13.638Z,3.90
2023-05-02T22:15:18.617Z,3.83
2023-05-02T22:21:22.427Z,4.13
2023-05-02T22:27:25.889Z,3.90
2023-05-02T22:33:30.743Z,4.35
2023-05-02T22:39:34.220Z,4.13
2023-05-02T22:45:38.417Z,4.65
2023-05-02T22:51:43.543Z,4.20
2023-05-02T22:57:47.586Z,3.85
2023-05-02T23:03:51.075Z,4.22
2023-05-02T23:09:55.959Z,4.15
2023-05-02T23:15:59.552Z,4.10
2023-05-02T23:22:03.073Z,4.30
2023-05-02T23:28:07.973Z,4.72
2023-05-02T23:34:12.458Z,4.82
2023-05-02T23:40:15.952Z,4.72
2023-05-02T23:46:20.725Z,4.50
2023-05-02T23:52:24.145Z,4.40
2023-05-02T23:58:27.606Z,4.72
